Terminal Aerodrome Forecast
Issued by NWS Cleveland, OH

Home | Current Version | Previous Version | Graphics & Text | Print | Product List | Glossary On
Versions: 1 2 3 4 5 6 7 8 9 10 11 12 13 14 15 16 17 18 19 20 21
000
FTUS41 KCLE 212300
TAFTOL
TAF
KTOL 212340Z 2200/2224 24008KT P6SM SCT070 OVC110
     FM220300 24007KT P6SM -SHRA BKN050 OVC080
      TEMPO 2206/2208 28008KT 5SM -SHRA BR BKN014 OVC020
     FM220900 29012KT P6SM OVC015
     FM221200 30014G22KT P6SM BKN025
     FM221600 30020G28KT P6SM SCT035=

USA.gov is the U.S. government's official web portal to all federal, state and local government web resources and services.